Tiempo atmosférico en la estación meteorológica de León Aeropuerto, León (916 m.)



Fecha
DESCASC
Temp. máxima en grados centígrados (hora)
DESCASC
Temp. mínima en grados centígrados (hora)
DESCASC
Temp. media en grados centígrados
DESCASC
Racha de viento máxima en m/sg (hora)
DESCASC
Velocidad máxima media en intervalos de 10 minutos(hora)
DESCASC
Precipitaciones diarias en mm
DESCASC
Precipitaciones de 00:00 a 06:00 en mm
DESCASC
Precipitaciones de 06:00 a 12:00 en mm
DESCASC
Precipitaciones de 12:00 a 18:00 en mm
DESCASC
Precipitaciones de 18:00 a 24:00 en mm
DESCASC

Gráficas

Temp. máximas Temp. mínimas Temp. medias Precipitaciones Rachas de viento máximas Velocidades máximas media en intervalos de 10 minutos

Datos horarios

Fecha y hora oficial Temperatura (ºC) Velocidad del viento (km/h) Dirección del viento Racha (km/h) Dirección de racha Precipitación (mm) Presión (hPa) Tendencia (hPa) Humedad (%)
2021-03-01 23:00:00 7.3 10 Sur 21 Sudeste 0 915.2 1.1 95
2021-03-01 22:00:00 7.6 13 Sudeste 26 Sur 0.6 914.8 1.2 94
2021-03-01 21:00:00 8 19 Sudeste 28 Sur 0.3 914.5 1.4 92
2021-03-01 20:00:00 8 13 Sur 22 Sudeste 0.5 914.1 0.8 93
2021-03-01 19:00:00 8 4 Sur 13 Nordeste 2.2 913.6 0.2 94
2021-03-01 18:00:00 8.4 6 Norte 21 Nordeste 0 913.1 -0.4 92
2021-03-01 17:00:00 7.9 11 Nordeste 21 Oeste 4.1 913.3 -0.5 94
2021-03-01 16:00:00 7.6 4 Este 18 Este 0 913.4 -1 94
2021-03-01 15:00:00 6.9 12 Este -- -- -- 913.5 -- 97
2021-03-01 14:00:00 6.3 13 Sudeste 22 Este 0.8 913.8 -- 97
2021-03-01 13:00:00 5.9 14 Sudeste 24 Sudeste 0.5 914.4 -- 96
2021-03-01 12:00:00 5.8 15 Sudeste 26 Sudeste 0.4 914.2 -- 97
2021-03-01 11:00:00 5.4 16 Sudeste 26 Sudeste 0.1 913.9 -- 97
2021-03-01 10:00:00 5 13 Sudeste 30 Este 1 913.8 -- 97
2021-03-01 09:00:00 4.9 9 Este 21 Sudeste 0.6 913.5 -- 97
2021-03-01 08:00:00 4.4 14 Este 18 Este 1.9 912.8 -- 97
2021-03-01 07:00:00 4.2 14 Sudeste 30 Sur 7.5 912.7 -- 95
2021-03-01 06:00:00 4.7 8 Sudeste 15 Este 1.6 912.7 -- 96
2021-03-01 05:00:00 5.1 10 Este 21 Este 0 912.1 -- 91
2021-03-01 04:00:00 5 12 Este 17 Este 0 912.2 -- 89
2021-03-01 03:00:00 4.4 12 Nordeste 15 Nordeste 0 912.5 -- 88
2021-03-01 02:00:00 4.5 8 Nordeste 17 Nordeste 0 912.6 -- 88
2021-03-01 01:00:00 4.8 10 Nordeste 13 Nordeste 0 912.5 -- 83
2021-03-01 00:00:00 4.7 8 Nordeste 18 Nordeste 0 912.4 -- 83
2021-02-28 23:00:00 4 0 Calma 13 Nordeste 0 912.6 -- 81
2021-02-28 22:00:00 5.4 13 Nordeste 17 Este 0 912.2 -- 78
2021-02-28 21:00:00 6.5 11 Este 24 Sudeste 0 912.3 -- 72
2021-02-28 20:00:00 8.2 10 Sudeste 21 Sudeste 0 912.2 -- 65
2021-02-28 19:00:00 9.9 15 Sudeste 22 Sudeste 0 911.7 -- 59
2021-02-28 18:00:00 11.4 13 Sudeste 26 Sur 0 911.6 -- 48
2021-02-28 17:00:00 11.8 15 Sur 26 Sudeste 0 911.6 -- 45
2021-02-28 16:00:00 11.9 11 Sudeste 24 Sudeste 0 911.9 -- 43
2021-02-28 15:00:00 11.4 9 Sudeste 22 Sudeste 0 912.3 -- 47
2021-02-28 14:00:00 11 10 Sudeste 21 Sudeste 0 913.1 -- 46
2021-02-28 13:00:00 9.2 6 Sudeste 13 Sudeste 0 914.1 -- 43
2021-02-28 12:00:00 6.9 5 Sudeste 21 Sur 0 914.6 -- 52
2021-02-28 11:00:00 6.1 15 Sudeste 21 Sudeste 0 915.2 -- 55
2021-02-28 10:00:00 2.7 6 Sudoeste 22 Sudeste 0 915.4 -- 76
2021-02-28 09:00:00 0.9 8 Norte 24 Sudeste 0 915.3 -- 88
2021-02-28 08:00:00 -1.4 8 Norte 13 Norte 0 915.1 -- 91
2021-02-28 07:00:00 -0.2 5 Nordeste 17 Sudeste 0 915.4 -- 91
2021-02-28 06:00:00 -0.1 9 Norte 13 Norte 0 915.6 -- 90
2021-02-28 05:00:00 0.1 10 Norte 13 Norte 0 916.1 -- 88
2021-02-28 04:00:00 1.3 9 Norte 11 Norte 0 916.6 -- 85
2021-02-28 03:00:00 2 4 Noroeste 8 Noroeste 0 917.2 -- 85
2021-02-28 02:00:00 3 4 Nordeste 9 Nordeste 0 917.5 -- 81
2021-02-28 01:00:00 4.6 5 Sudeste 15 Sudeste 0 917.3 -- 69
2021-02-28 00:00:00 4.9 13 Noroeste 18 Noroeste 0 917.5 -- 72
2021-02-27 23:00:00 4.4 10 Noroeste 13 Noroeste 0 918.1 -- 68
2021-02-27 22:00:00 6.8 6 Noroeste 9 Sudoeste 0 918.2 -- 60
2021-02-27 21:00:00 8.4 6 Sudoeste 13 Sudeste 0 918.3 -- 49
2021-02-27 20:00:00 11.1 8 Sudeste 13 Sur 0 918.5 -- 43
2021-02-27 19:00:00 13.5 9 Sur 15 Sudeste 0 918.3 -- 40
2021-02-27 18:00:00 15.9 9 Sudeste 15 Sur 0 918.3 -- 42
2021-02-27 17:00:00 15.8 8 Sudeste 17 Sur 0 918.5 -- 46
2021-02-27 16:00:00 15.6 8 Sur 17 Sudeste 0 919.1 -- 46
2021-02-27 15:00:00 14.6 10 Sudeste 18 Sudeste 0 919.9 -- 48
2021-02-27 14:00:00 14.4 10 Sur 18 Sur 0 920.8 -- 49
2021-02-27 13:00:00 13.4 7 Sur 18 Sudeste 0 921.6 -- 54
2021-02-27 12:00:00 12.3 8 Sudeste 15 Sudeste 0 921.8 -- 58
2021-02-27 11:00:00 9.3 10 Sur 13 Sudoeste 0 922.1 -- 72
2021-02-27 10:00:00 6.5 6 Sudoeste 9 Oeste 0 922.3 -- 80
2021-02-27 09:00:00 2.4 9 Oeste 11 Oeste 0 922.1 -- 90
2021-02-27 08:00:00 2.5 5 Sudeste 11 Este 0 921.8 -- 89
2021-02-27 07:00:00 2.5 8 Norte 11 Norte 0 921.7 -- 89
2021-02-27 06:00:00 2.8 8 Norte 11 Norte 0 921.7 -- 89
2021-02-27 05:00:00 3.3 6 Noroeste 11 Noroeste 0 921.9 -- 89
2021-02-27 04:00:00 3.7 7 Noroeste -- -- 0 922.2 -- 90
2021-02-27 03:00:00 4.1 0 Calma 8 Norte 0 922.6 -- 88
2021-02-27 02:00:00 4.2 3 Norte 5 Norte 0 922.6 -- 89
2021-02-27 01:00:00 4.9 0 Calma 13 Noroeste 0 922.7 -- 88
2021-02-27 00:00:00 5.2 9 Noroeste 11 Noroeste 0 922.8 -- 85
2021-02-26 23:00:00 6.8 5 Oeste 9 Noroeste 0 923.1 -- 81
2021-02-26 22:00:00 7.3 2 Norte 11 Noroeste 0 922.8 -- 80
2021-02-26 21:00:00 9 -- -- -- -- 0 922.7 -- 74
2021-02-26 20:00:00 10.9 0 Calma 11 Sudeste 0 922.6 -- 66
2021-02-26 19:00:00 12.3 9 Sudeste 22 Sudeste 0 922.3 -- 61
2021-02-26 18:00:00 14 14 Sudeste 28 Sudeste 0 921.8 -- 53
2021-02-26 17:00:00 14.9 14 Sudeste 24 Sudeste 0 921.8 -- 46
2021-02-26 16:00:00 15 13 Sudeste 24 Sudeste 0 921.7 -- 55
2021-02-26 15:00:00 14.8 10 Sudeste 18 Sudeste 0 922.1 -- 54
2021-02-26 14:00:00 14 8 Sudeste 17 Sur 0 922.8 -- 53
2021-02-26 13:00:00 12.9 6 Sur 15 Sudoeste 0 923.6 -- 59
2021-02-26 12:00:00 11.7 8 Sudoeste 15 Sudoeste 0 923.9 -- 64
2021-02-26 11:00:00 9.7 8 Sudoeste 13 Sudoeste 0 924.1 -- 72
2021-02-26 10:00:00 7.3 5 Sudoeste 8 Sudoeste 0 923.8 -- 84
2021-02-26 09:00:00 5.2 3 Oeste 9 Oeste 0 923.1 -- 92
2021-02-26 08:00:00 4.8 5 Oeste 11 Sudeste 0 922.7 -- 89
2021-02-26 07:00:00 6.8 10 Norte 15 Norte 0 922.6 -- 82
2021-02-26 06:00:00 6.7 10 Norte 13 Norte 0 922.3 -- 85
2021-02-26 05:00:00 6.5 9 Norte 15 Norte 0 922.5 -- 85
2021-02-26 04:00:00 5.9 11 Norte 15 Norte 0 922.8 -- 88
2021-02-26 03:00:00 6.4 9 Norte 13 Norte 0 923.1 -- 86
2021-02-26 02:00:00 6.1 8 Norte 13 Norte 0 923.3 -- 87
2021-02-26 01:00:00 6 10 Norte 15 Norte 0 923.4 -- 88
2021-02-26 00:00:00 6.3 12 Norte 18 Norte 0 923.5 -- 88
2021-02-25 23:00:00 6.3 11 Norte 15 Norte 0 923.3 -- 88
2021-02-25 22:00:00 7 10 Norte 18 Norte 0 923.1 -- 87
2021-02-25 21:00:00 7 10 Norte 15 Norte 0 922.9 -- 87
2021-02-25 20:00:00 7.4 10 Norte 13 Norte 0 922.3 -- 84
2021-02-25 19:00:00 9.6 6 Norte 11 Nordeste 0 921.6 -- 76
2021-02-25 18:00:00 10.1 8 Nordeste 13 Este 0 921.5 -- 74
2021-02-25 17:00:00 10 10 Este 18 Este 0 921.3 -- 73
2021-02-25 16:00:00 9.7 11 Este 18 Este 0 921.1 -- 73
2021-02-25 15:00:00 9.3 13 Este 17 Este 0 921.2 -- 75
2021-02-25 14:00:00 8.5 11 Este 18 Este 0 921.4 -- 77
2021-02-25 13:00:00 8.1 12 Sudeste 22 Este 0 921.7 -- 78
2021-02-25 12:00:00 8.1 17 Este 24 Este 0 921.5 -- 78
2021-02-25 11:00:00 8 18 Este 24 Este 0 921.3 -- 79
2021-02-25 10:00:00 7.4 13 Este 18 Este 0 921 -- 85
2021-02-25 09:00:00 6.8 8 Este 13 Este 0 920.5 -- 89
2021-02-25 08:00:00 6.6 6 Este 9 Este 0 919.8 -- 89
2021-02-25 07:00:00 7.1 8 Este 11 Este 0 919.4 -- 89
2021-02-25 06:00:00 7.3 8 Este 13 Este 0 919 -- 90
2021-02-25 05:00:00 7.3 7 Nordeste 11 Nordeste 0 919.1 -- 90
2021-02-25 04:00:00 7.4 8 Nordeste 15 Este 0 919.3 -- 89
2021-02-25 03:00:00 7.5 5 Este 11 Este 0 919.8 -- 86
2021-02-25 02:00:00 7.8 0 Calma 9 Este 0 920.4 -- 83
2021-02-25 01:00:00 7.8 7 Este 11 Este 0 920.6 -- 82
2021-02-25 00:00:00 8.5 0 Calma 9 Sudeste 0 920.6 -- 77
2021-02-24 23:00:00 8.5 6 Sudeste 9 Sudeste 0 920.6 -- 75
2021-02-24 22:00:00 8.1 0 Calma 13 Sur 0 920.5 -- 74
2021-02-24 21:00:00 10 9 Sur 15 Sur 0 920.4 -- 66
2021-02-24 20:00:00 11.1 6 Sur 11 Sur 0 920.5 -- 61
2021-02-24 19:00:00 11.8 8 Sur 17 Sur 0 920.1 -- 59
2021-02-24 18:00:00 13.1 15 Sur 28 Sur 0 920 -- 52
2021-02-24 17:00:00 13.8 15 Sur 32 Sur 0 920.1 -- 50
2021-02-24 16:00:00 14 18 Sudeste 26 Sudeste 0 920.9 -- 49
2021-02-24 15:00:00 12.9 12 Sudeste 26 Sudeste 0 921.3 -- 53
2021-02-24 14:00:00 12.3 12 Sudeste 22 Sudeste 0 921.8 -- 55
2021-02-24 13:00:00 10.5 11 Este 17 Este 0 922.8 -- 65
2021-02-24 12:00:00 8.7 10 Este 17 Este 0 923.6 -- 74
2021-02-24 11:00:00 6.6 10 Este 17 Este 0 924.3 -- 82
2021-02-24 10:00:00 4.4 12 Nordeste 17 Norte 0 924.2 -- 91
2021-02-24 09:00:00 1.9 10 Norte 17 Nordeste 0 924.3 -- 97
2021-02-24 08:00:00 1.3 11 Norte 17 Norte 0 924.1 -- 95
2021-02-24 07:00:00 0.4 9 Nordeste 13 Norte 0 924.1 -0.5 95
2021-02-24 06:00:00 1.1 9 Nordeste 13 Nordeste 0 924.3 -0.4 94
2021-02-24 05:00:00 1.1 10 Norte 13 Norte 0 924.2 -- 90
2021-02-24 04:00:00 1.3 9 Norte 15 Norte 0 924.6 -- 88
2021-02-24 03:00:00 1.4 10 Norte 15 Norte 0 924.7 -- 84
2021-02-24 02:00:00 1.9 6 Norte 11 Nordeste 0 924.9 -0.1 78
2021-02-24 01:00:00 2.4 5 Norte 11 Norte 0 924.9 -- 75
2021-02-24 00:00:00 3.5 9 Nordeste 13 Nordeste 0 925 -- 72
2021-02-23 23:00:00 3.6 9 Norte 13 Norte 0 925 -- 74
2021-02-23 22:00:00 4.1 7 Norte 11 Norte 0 925 -- 73
2021-02-23 21:00:00 6.4 5 Nordeste 8 Norte 0 924.9 0.9 66
2021-02-23 20:00:00 8.9 4 Sudeste 9 Sudeste 0 924.7 -- 54
2021-02-23 19:00:00 10.8 8 Sudeste 21 Sudeste 0 924.4 -- 48
2021-02-23 18:00:00 11.9 15 Sudeste 24 Sudeste 0 924 -- 40
2021-02-23 17:00:00 12.3 12 Sudeste 26 Sur 0 923.8 -- 42
2021-02-23 16:00:00 11.9 15 Sur 26 Sur 0 923.8 -- 40
2021-02-23 15:00:00 11.2 11 Sudeste 26 Sudeste 0 923.9 -- 50
2021-02-23 14:00:00 10.4 13 Sur 24 Sudeste 0 924.3 -- 57
2021-02-23 13:00:00 9.4 12 Sudeste 21 Sudeste 0 924.8 -- 62
2021-02-23 12:00:00 7.5 6 Este 15 Este 0 924.8 -- 65
2021-02-23 11:00:00 5.5 10 Este 15 Este 0 924.5 -- 68
2021-02-23 10:00:00 4.1 7 Nordeste 9 Nordeste 0 923.8 -- 71
2021-02-23 09:00:00 0.3 8 Norte 13 Nordeste 0 923.2 -- 87
2021-02-23 08:00:00 -1.2 6 Norte 11 Norte 0 922.3 -- 89
2021-02-23 07:00:00 -1 8 Norte 15 Norte 0 921.7 -- 89
2021-02-23 06:00:00 -1 7 Norte 11 Nordeste 0 921 -- 88
2021-02-23 05:00:00 -0.7 4 Norte 9 Norte 0 920.8 -- 86
2021-02-23 04:00:00 0 8 Norte 13 Norte 0 920.6 -- 84
2021-02-23 03:00:00 0.3 9 Norte 13 Norte 0 920.3 -- 85
2021-02-23 02:00:00 0.8 10 Norte 13 Nordeste 0 920.3 -- 83
2021-02-23 01:00:00 1.1 8 Norte 13 Norte 0 919.8 -- 81
2021-02-23 00:00:00 2 6 Norte 13 Este 0 919.5 -- 78
2021-02-22 23:00:00 3.2 8 Nordeste 11 Este 0 918.7 -- 75
2021-02-22 22:00:00 5 5 Este 21 Sur 0 917.7 -- 67
2021-02-22 21:00:00 5.8 15 Sur 22 Sur 0 917 -- 65
2021-02-22 20:00:00 7.4 5 Sur 13 Sur 0 916.4 -- 42
2021-02-22 19:00:00 9.2 11 Sur 17 Sudoeste 0 915.5 -- 41
2021-02-22 18:00:00 10.8 10 Sur 18 Sudoeste 0 914.8 -- 33
2021-02-22 17:00:00 11 9 Sudoeste 24 Sudoeste 0 914.5 -- 31
2021-02-22 16:00:00 10.6 14 Sudoeste 24 Oeste 0 913.7 -- 33
2021-02-22 15:00:00 9.9 14 Oeste 30 Sudoeste 0 913.5 -- 45
2021-02-22 14:00:00 9.5 3 Sur 15 Este 0 913.3 -- 42
2021-02-22 13:00:00 8.1 5 Este 13 Este 0 913.4 -- 54
2021-02-22 12:00:00 6.6 7 Este 15 Nordeste 0 913.2 -- 57
2021-02-22 11:00:00 5.2 7 Norte 17 Noroeste 0 912.6 -- 65
2021-02-22 10:00:00 2.8 12 Noroeste 18 Noroeste 0 912 -- 76
2021-02-22 09:00:00 0.4 13 Noroeste 21 Noroeste 0 911.1 -- 87
2021-02-22 08:00:00 -0.6 13 Oeste 18 Noroeste 0 910.1 -- 93
2021-02-22 07:00:00 0.1 15 Noroeste 21 Noroeste 0 909.4 2.1 89
2021-02-22 06:00:00 0.9 13 Noroeste 22 Oeste 0 908.4 -- 89
2021-02-22 05:00:00 1.3 14 Oeste 18 Oeste 0 907.7 -- 91
2021-02-22 04:00:00 1.6 10 Oeste 17 Oeste 0 907.3 -- 94
2021-02-22 03:00:00 2.5 9 Oeste 17 Oeste 0 906.9 -- 94
2021-02-22 02:00:00 2.8 8 Oeste 13 Oeste 0 906.2 -- 94
2021-02-22 01:00:00 2.9 9 Oeste 17 Noroeste 0 905.7 -- 93
2021-02-22 00:00:00 3.3 8 Oeste 15 Noroeste 0 905.3 -- 92
2021-02-21 23:00:00 3.2 10 Noroeste 18 Noroeste 0 904.9 -- 93
2021-02-21 22:00:00 2.7 4 Noroeste 17 Noroeste 0.4 904.4 2.3 97
2021-02-21 21:00:00 2.6 12 Noroeste 21 Norte 1.8 903.7 -- 97
2021-02-21 20:00:00 3 11 Norte 21 Norte 1.5 903.2 -- 97
2021-02-21 19:00:00 3.3 11 Norte 35 Norte 1.3 902.1 -- 96
2021-02-21 18:00:00 5.3 7 Norte 21 Norte 1.7 900.8 -- 96
2021-02-21 17:00:00 5.8 7 Noroeste 11 Noroeste 1.4 900.3 -- 95
2021-02-21 16:00:00 5.7 8 Noroeste 15 Noroeste 0.6 900 -- 94
2021-02-21 15:00:00 5.8 8 Noroeste 21 Oeste 1 899.8 -- 94
2021-02-21 14:00:00 6.4 13 Oeste 24 Sudoeste 2.1 899.8 -- 94
2021-02-21 13:00:00 7.6 17 Sudoeste 39 Sur 0.3 900.2 -- 89
2021-02-21 12:00:00 8.4 12 Sur 18 Sur 0 900 -- 80
2021-02-21 11:00:00 7.7 10 Sudeste 28 Sudeste 0.5 899.9 -- 83
2021-02-21 10:00:00 7.6 15 Sudeste 35 Sudeste 0.3 899.6 -- 80
2021-02-21 09:00:00 8.1 26 Sudeste 54 Sudeste 0 899.6 -- 74
2021-02-21 08:00:00 8.3 17 Sudeste 33 Sudeste 0 898.7 -- 70
2021-02-21 07:00:00 8.1 15 Sudeste 35 Sudeste 0 899.5 -- 71
2021-02-21 06:00:00 8.3 17 Sudeste 32 Sudeste 0 899.4 -- 63
2021-02-21 05:00:00 7.9 14 Este 24 Sudeste 0 899.1 -- 60
2021-02-21 04:00:00 7.3 10 Este 17 Este 0 899.7 -- 65
2021-02-21 03:00:00 7.4 11 Este 21 Sudeste 0 901.1 -- 66
2021-02-21 02:00:00 9.2 18 Sur 59 Sur 0 901.4 -- 52
2021-02-21 01:00:00 7.7 9 Este 17 Este 0 902.7 -- 72
2021-02-21 00:00:00 8 9 Este 22 Sudeste 0 902.6 -- 76
2021-02-20 23:00:00 7.8 13 Este 30 Este 0 902.5 -- 83
2021-02-20 22:00:00 7.2 10 Nordeste 15 Nordeste 0 902.7 -- 91
2021-02-20 21:00:00 7.8 2 Este 30 Sudoeste 0.2 903.2 -- 88
2021-02-20 20:00:00 7.6 8 Este 17 Sudeste 1.1 904 -- 92
2021-02-20 19:00:00 7.6 5 Oeste 15 Sudoeste 1.4 903.2 -- 93
2021-02-20 18:00:00 8 12 Sur 24 Sur 2.1 903.2 -- 90
2021-02-20 17:00:00 8.3 10 Sur 17 Sur 2.2 903.3 -- 89
2021-02-20 16:00:00 8.2 13 Sudeste 24 Sur 1.8 903.1 -- 88
2021-02-20 15:00:00 8.6 18 Sur 41 Sur 0.9 903.6 -- 80
2021-02-20 14:00:00 9.5 30 Sur 46 Sur 0 904.2 -- 67
2021-02-20 13:00:00 9.8 32 Sur 48 Sur 0 904.7 -- 65
2021-02-20 12:00:00 9.2 22 Sur 39 Sudoeste 0 905.1 -- 70
2021-02-20 11:00:00 8.8 13 Sur 22 Sudoeste 0 905.1 -- 72
2021-02-20 10:00:00 7.5 12 Sur 24 Sur 0 905.2 -- 79
2021-02-20 09:00:00 4.9 19 Sur 26 Sur 0 905.1 0.1 89
2021-02-20 08:00:00 4.5 16 Sur 22 Sur 0 904.7 -- 90
2021-02-20 07:00:00 5.1 11 Sudeste 22 Sur 0 904.8 -- 89
2021-02-20 06:00:00 5.6 20 Sur 33 Sudeste 0 905 -- 89
2021-02-20 05:00:00 5.7 18 Sur 30 Sur 0 905.1 -- 92
2021-02-20 04:00:00 6 24 Sur 33 Sur 0 905.7 -0.9 91
2021-02-20 03:00:00 6.5 25 Sur 39 Sur 0 906.2 -- 89
2021-02-20 02:00:00 7.6 28 Sur 37 Sur 0 906.1 -- 85
2021-02-20 01:00:00 7.7 19 Sur 30 Sur 0 906.6 -- 82
2021-02-20 00:00:00 8.4 14 Sur 39 Sur 0 907.1 -- 80
2021-02-19 23:00:00 8.5 23 Sur 37 Sur 0 907.5 -0.4 79
2021-02-19 22:00:00 8.8 18 Sur 32 Sur 0 907.7 -- 74
2021-02-19 21:00:00 9.1 19 Sur 33 Sur 0 908.3 -- 67
2021-02-19 20:00:00 9.3 19 Sur 28 Sur 0 907.9 -- 67
2021-02-19 19:00:00 9.9 16 Sur 28 Sur 0 908.1 -- 68
2021-02-19 18:00:00 10.4 16 Sur 35 Sur 0 908.3 -- 62
2021-02-19 17:00:00 10.5 24 Sur 39 Sur 0 908.7 -1.2 60
2021-02-19 16:00:00 10.6 30 Sur 48 Sudoeste 0 909 -- 59
2021-02-19 15:00:00 11.2 32 Sur 54 Sur 0 909.4 -- 56
2021-02-19 14:00:00 10.7 34 Sur 52 Sur 0 909.9 -- 57
2021-02-19 13:00:00 8.9 20 Sur 28 Sur 0 910.2 -- 89
2021-02-19 12:00:00 8.3 18 Sudeste 28 Sur 0 910.7 -- 94
2021-02-19 11:00:00 8.3 23 Sur 41 Sur 0 910.8 -- 93
2021-02-19 10:00:00 7.5 11 Sur 26 Sur 0 910.7 -- 97
2021-02-19 09:00:00 7.4 13 Sur 26 Sur 0 910.6 -- 98
2021-02-19 08:00:00 7 15 Sur 28 Sur 0 910.4 -- 98
2021-02-19 07:00:00 6.8 16 Sur 33 Sur 0 910.5 -- 98
2021-02-19 06:00:00 6.5 18 Sur 26 Sur 0 910.2 -- 97
2021-02-19 05:00:00 6.6 13 Sur 24 Sudeste 0 910.2 -- 97
2021-02-19 04:00:00 6.6 13 Sur 26 Sur 0 910.4 -- 98
2021-02-19 03:00:00 6.9 14 Sur 24 Sur 0 910.7 -- 97
2021-02-19 02:00:00 7 14 Sur 26 Sur 0 911 -- 96
2021-02-19 01:00:00 7.4 20 Sur 32 Sur 0 911 -- 95
2021-02-19 00:00:00 7 7 Sur 18 Sur 0 911.2 -- 95
2021-02-18 23:00:00 6.7 8 Sur 15 Sur 0 911.4 -- 94
2021-02-18 22:00:00 7 0 Calma 8 Sur 0 911.1 -- 93
2021-02-18 21:00:00 6.8 3 Sudoeste 8 Sur 0 911.1 -- 94
2021-02-18 20:00:00 7.3 2 Sudoeste 13 Noroeste 0 910.8 -- 91
2021-02-18 19:00:00 7.8 0 Calma 17 Oeste 0.1 910.2 -- 89
2021-02-18 18:00:00 8.8 10 Oeste 21 Oeste 1.1 909.8 -- 90
2021-02-18 17:00:00 8.7 9 Oeste 26 Oeste 2.7 909.6 -- 92
2021-02-18 16:00:00 9.2 10 Sur 18 Oeste 0 909.2 -- 85
2021-02-18 15:00:00 8.8 12 Oeste 26 Oeste 0.1 909.2 -- 84
2021-02-18 14:00:00 8.7 16 Oeste 58 Sudoeste 0.7 909.2 -- 90
2021-02-18 13:00:00 9.5 40 Sudoeste 55 Sudoeste 0 909 -- 82
2021-02-18 12:00:00 9.2 33 Sudoeste 52 Sudoeste 0.1 909.1 -- 84
2021-02-18 11:00:00 7.8 36 Sudoeste 52 Sur 0.1 909.1 -- 89
2021-02-18 10:00:00 7.5 29 Sudoeste 50 Sudoeste 0 908.4 -- 89
2021-02-18 09:00:00 7.2 27 Sur 45 Sur 0.3 908 -- 93
2021-02-18 08:00:00 7.3 17 Sur 41 Sur 0 907.6 -- 93
2021-02-18 07:00:00 7.7 29 Sur 41 Sur 0 907.4 -- 91
2021-02-18 06:00:00 7.9 26 Sur 37 Sur 0 907.9 -- 90
2021-02-18 05:00:00 8 18 Sur 33 Sur 0 908.2 -- 89
2021-02-18 04:00:00 8.2 21 Sur 32 Sur 0 908.3 -- 90
2021-02-18 03:00:00 8 14 Sur 28 Sur 0 908.8 -- 92
2021-02-18 02:00:00 8.7 23 Sur 37 Sudoeste 0 909 -- 89
2021-02-18 01:00:00 8.9 28 Sur 46 Sudoeste 0 909.5 -- 89
2021-02-18 00:00:00 9 30 Sur 48 Sur 0 909.9 -- 89
2021-02-17 23:00:00 9.1 29 Sur 41 Sur 0 910 -- 90
2021-02-17 22:00:00 9.1 24 Sur 35 Sur 0 910.2 -- 92
2021-02-17 21:00:00 9.3 12 Sudeste 45 Sur 0 910.7 -- 88
2021-02-17 20:00:00 9.5 25 Sur 45 Sudoeste 0 911.3 -- 85
2021-02-17 19:00:00 9.6 19 Sur 30 Sur 0 911.2 -- 87
2021-02-17 18:00:00 9.5 17 Sur 35 Sur 0 911.6 -- 90
2021-02-17 17:00:00 10.1 27 Sur 42 Sur 0 912.5 -- 85
2021-02-17 16:00:00 10.8 28 Sur 42 Sudoeste 0 912.5 -- 75
2021-02-17 15:00:00 12.2 27 Sur 48 Sur 0 913 -- 65
2021-02-17 14:00:00 10.7 28 Sudoeste 41 Sudoeste 0 914.1 -- 71
2021-02-17 13:00:00 9 17 Sur 30 Sudeste 0 915.1 -- 88
2021-02-17 12:00:00 7 11 Sur 18 Sur 0 915.8 -- 99
2021-02-17 11:00:00 5.1 8 Este 11 Este 0 916.1 -- 99
2021-02-17 10:00:00 4 6 Nordeste 9 Nordeste 0 916.4 -- 99
2021-02-17 09:00:00 3.7 5 Nordeste 15 Norte 0 916.4 -- 99
2021-02-17 08:00:00 3.1 9 Norte 13 Norte 0 916 -- 99
2021-02-17 07:00:00 3.3 8 Norte 11 Norte 0 916.3 -- 99
2021-02-17 06:00:00 3.3 4 Norte 8 Norte 0 916.6 -- 99
2021-02-17 05:00:00 3.6 5 Norte 11 Norte 0 916.6 -- 99
2021-02-17 04:00:00 2.8 4 Norte 9 Norte 0 917.3 -- 99
2021-02-17 03:00:00 1.8 4 Norte 11 Norte 0 917.4 -- 99
2021-02-17 02:00:00 1.8 0 Calma 5 Norte 0 917.6 -- 98
2021-02-17 01:00:00 2.7 4 Norte 8 Norte 0 917.9 -- 97
2021-02-17 00:00:00 3.1 3 Oeste 9 Oeste 0 918.2 -- 97
2021-02-16 23:00:00 3.6 0 Calma 11 Norte 0 918.2 -- 96
2021-02-16 22:00:00 4.4 2 Noroeste 9 Norte 0 918 -- 93
2021-02-16 21:00:00 6.1 8 Oeste 13 Sur 0 917.9 -- 95
2021-02-16 20:00:00 7.7 7 Sur 11 Sur 0 917.7 -- 89
2021-02-16 19:00:00 8.9 3 Sudoeste 15 Oeste 0.2 917.5 -- 87
2021-02-16 18:00:00 9.6 8 Oeste 26 Oeste 0 917.1 -- 82
2021-02-16 17:00:00 9.7 10 Oeste 30 Noroeste 0.5 916.9 -- 91
2021-02-16 16:00:00 9.6 17 Oeste 32 Noroeste 0.1 916.9 -- 85
2021-02-16 15:00:00 8.8 16 Oeste 37 Sudoeste 0.8 917.2 -- 89
2021-02-16 14:00:00 9.9 24 Sudoeste 37 Sudoeste 0 916.9 -- 81
2021-02-16 13:00:00 9.2 27 Sudoeste 42 Sudoeste 0 917.4 -- 83
2021-02-16 12:00:00 9 28 Sur 52 Sudoeste 0 917 -- 81
2021-02-16 11:00:00 8.5 29 Sur 42 Sudoeste 0 916.8 -- 82
2021-02-16 10:00:00 6.8 31 Sur 42 Sur 0 916.6 -- 87
2021-02-16 09:00:00 6.6 30 Sur 41 Sur 0 916.6 -- 87
2021-02-16 08:00:00 7.3 21 Sur 39 Sur 0 916.4 -- 83
2021-02-16 07:00:00 5.2 9 Norte 26 Nordeste 0 916.7 -- 96
2021-02-16 06:00:00 5.1 9 Este 18 Este 0 916.5 -- 94
2021-02-16 05:00:00 4.9 0 Calma 11 Sudeste 0 917.3 -- 90
2021-02-16 04:00:00 6.5 6 Sudeste 15 Sudeste 0 917.8 -- 88
2021-02-16 03:00:00 7 8 Sudeste 15 Sudeste 0 918.5 -- 85
2021-02-16 02:00:00 7.7 10 Sudeste 24 Sudoeste 0 918.7 -- 82
2021-02-16 01:00:00 8.1 14 Sur 18 Sur 0 919.2 -- 82
2021-02-16 00:00:00 6.9 0 Calma 9 Nordeste 0 919.5 -- 84
2021-02-15 23:00:00 7 0 Calma 9 Nordeste 0 919.5 -- 83
2021-02-15 22:00:00 9.6 3 Sudeste 11 Sudeste 0 919.5 -- 76
2021-02-15 21:00:00 10.1 5 Sudeste 11 Sur 0 919.6 -- 75
2021-02-15 20:00:00 10.9 4 Sudeste 18 Sudeste 0 919.8 -- 71
2021-02-15 19:00:00 11.9 13 Sudeste 26 Sur 0 919.8 -- 68
2021-02-15 18:00:00 13.6 15 Sudeste 22 Sur 0 920 -- 57
2021-02-15 17:00:00 13.3 13 Sur 24 Sudeste 0 920.5 -- 60
2021-02-15 16:00:00 14.7 14 Sur 30 Sudeste 0 920.9 -- 54
2021-02-15 15:00:00 13.9 12 Sur 24 Sur 0 921.4 -- 58
2021-02-15 14:00:00 12.2 8 Este 17 Este 0 922.2 -- 68
2021-02-15 13:00:00 9.2 7 Nordeste 17 Nordeste 0 923.2 -- 83
2021-02-15 12:00:00 7.9 10 Nordeste 15 Este 0 924 -- 88
2021-02-15 11:00:00 6.4 9 Nordeste 13 Nordeste 0 924 -- 91
2021-02-15 10:00:00 5.1 7 Nordeste 9 Nordeste 0 923.9 -- 99
2021-02-15 09:00:00 2.4 9 Nordeste 11 Nordeste 0 923.2 -- 99
2021-02-15 08:00:00 1.9 8 Nordeste 11 Este 0 922.3 -- 99
2021-02-15 07:00:00 2.4 8 Norte 11 Norte 0 922.1 -- 99
2021-02-15 06:00:00 3.6 8 Norte 13 Nordeste 0 922.1 -- 99
2021-02-15 05:00:00 3.4 6 Nordeste 13 Norte 0 922.1 -- 99
2021-02-15 04:00:00 4.1 4 Nordeste 8 Nordeste 0 922.3 -- 98
2021-02-15 03:00:00 4.1 6 Nordeste 9 Este 0 922.1 -- 97
2021-02-15 02:00:00 4.5 8 Nordeste 11 Este 0 922.2 -- 96
2021-02-15 01:00:00 5.2 8 Nordeste 11 Norte 0 922.2 -- 96
2021-02-15 00:00:00 5.6 5 Norte 11 Nordeste 0 922.2 -- 96
2021-02-14 23:00:00 5.7 8 Norte 9 Norte 0 922.1 -- 95
2021-02-14 22:00:00 6 4 Norte 8 Norte 0 921.8 -- 93
2021-02-14 21:00:00 7 5 Norte 9 Norte 0 921.7 -- 91
2021-02-14 20:00:00 8.1 7 Norte 11 Nordeste 0 921.7 -- 88
2021-02-14 19:00:00 9.1 8 Nordeste 13 Nordeste 0 921.3 0.1 85
2021-02-14 18:00:00 9.2 7 Este 15 Este 0 921.1 -0.3 85
2021-02-14 17:00:00 8.8 7 Este 15 Este 0 921.3 -- 86
2021-02-14 16:00:00 8.8 9 Sudeste 15 Sudeste 0 921.2 -- 85
2021-02-14 15:00:00 7.8 9 Sudeste 15 Sudeste 0 921.4 -- 90
2021-02-14 14:00:00 7.5 9 Sudeste 13 Sudeste 0 921.9 -- 92
2021-02-14 13:00:00 5.8 9 Este 11 Este 0 922.1 -- 97
2021-02-14 12:00:00 4.8 0 Calma -- -- 0 922.1 -- 99
2021-02-14 11:00:00 3.9 0 Calma -- -- 0 922 -- 99
2021-02-14 10:00:00 3.7 0 Calma 8 Sudeste 0 921.5 -- 99
2021-02-14 09:00:00 2.1 0 Calma 8 Norte 0 921.2 -- 99
2021-02-14 08:00:00 1.4 7 Norte 11 Nordeste 0 920.8 -- 98
2021-02-14 07:00:00 1.9 5 Nordeste 9 Nordeste 0 920.5 -- 99
2021-02-14 06:00:00 2.5 0 Calma 8 Este 0 920.7 -- 96
2021-02-14 05:00:00 3.7 6 Norte 13 Norte 0 920.6 -- 98
2021-02-14 04:00:00 3 10 Norte 13 Norte 0 920.8 -- 97
2021-02-14 03:00:00 2.7 11 Norte 13 Norte 0 920.8 -- 96
2021-02-14 02:00:00 3 0 Calma 9 Norte 0 920.9 -- 95
2021-02-14 01:00:00 2.7 10 Norte 13 Norte 0 920.9 -- 94
2021-02-14 00:00:00 4.5 0 Calma 9 Nordeste 0 921 -- 90
2021-02-13 23:00:00 6.7 7 Nordeste 15 Norte 0 920.7 -- 89
2021-02-13 22:00:00 7.4 11 Noroeste 21 Noroeste 0 920.7 -- 87
2021-02-13 21:00:00 8.1 13 Oeste 21 Oeste 0 920.5 -- 85
2021-02-13 20:00:00 8.5 14 Oeste 22 Oeste 0 920.4 -- 83
2021-02-13 19:00:00 9.6 17 Oeste 35 Oeste 0 919.8 -- 77
2021-02-13 18:00:00 11.7 23 Oeste 42 Oeste 0 919.6 -- 71
2021-02-13 17:00:00 11.8 25 Oeste 50 Oeste 0 919 -- 70
2021-02-13 16:00:00 12.9 33 Oeste 46 Oeste 0 919 -- 65
2021-02-13 15:00:00 13.4 30 Oeste 42 Oeste 0 918.6 -- 67
2021-02-13 14:00:00 12.1 30 Oeste 41 Oeste 0 919.2 -- 70
2021-02-13 13:00:00 11.5 19 Oeste 30 Oeste 0 919.6 -- 67
2021-02-13 08:00:00 2 6 Norte 9 Nordeste 0 918.3 0 96
2021-02-13 07:00:00 1.4 6 Norte 13 Norte 0 918.4 0.2 96
2021-02-13 06:00:00 1.4 5 Norte 11 Noroeste 0 918.2 0.3 94
2021-02-13 05:00:00 1.7 8 Noroeste 11 Noroeste 0 918.3 0.3 95
2021-02-13 04:00:00 1.6 6 Norte 11 Norte 0 918.2 -0.1 95
2021-02-13 03:00:00 1.8 4 Norte 9 Nordeste 0 917.9 -0.2 95
2021-02-13 02:00:00 2.6 0 Calma 8 Nordeste 0 918 0.1 91
2021-02-13 01:00:00 4.5 6 Sudeste 11 Sur 0 918.3 0.5 90
2021-02-13 00:00:00 4.5 4 Nordeste 21 Oeste 0 918.1 0.3 91
2021-02-12 23:00:00 5.6 15 Oeste 21 Oeste 0 917.9 0.6 88
2021-02-12 22:00:00 6.1 12 Oeste 24 Oeste 0 917.8 0.9 85
2021-02-12 21:00:00 6.3 16 Oeste 24 Oeste 0 917.8 1.4 85
2021-02-12 20:00:00 7.3 14 Oeste 24 Oeste 0 917.3 1.6 81
2021-02-12 19:00:00 8.5 15 Oeste 32 Oeste 0 916.9 1.5 74
2021-02-12 18:00:00 10.7 21 Oeste 35 Oeste 0 916.4 1.4 66
2021-02-12 17:00:00 11.9 21 Oeste 41 Oeste 0 915.7 0.8 61
2021-02-12 16:00:00 12.2 24 Oeste 45 Oeste 0 915.4 0.8 60
2021-02-12 15:00:00 11.8 20 Noroeste 33 Oeste 0 915 0.8 65
2021-02-12 14:00:00 11.7 20 Oeste 35 Oeste 0 914.9 1.3 66
2021-02-12 13:00:00 11.6 22 Oeste 37 Oeste 0 914.6 1.8 68
2021-02-12 12:00:00 10.1 25 Oeste 37 Oeste 0 914.2 2 78
2021-02-12 11:00:00 8.6 22 Oeste 41 Oeste 0 913.6 2.4 84
2021-02-12 10:00:00 6.7 19 Oeste 30 Oeste 0 912.8 2.4 94
2021-02-12 09:00:00 6.2 17 Oeste 33 Oeste 0 912.2 -- 93
2021-02-12 08:00:00 6.5 18 Oeste 32 Oeste 0 911.2 -- 93
2021-02-12 07:00:00 6.9 17 Oeste 32 Oeste 0 910.4 -- 94
2021-02-12 06:00:00 7.1 16 Oeste 26 Oeste 0 910 -- 93
2021-02-12 05:00:00 7.7 22 Oeste 46 Oeste 0.2 909.6 -- 89
2021-02-12 04:00:00 7.8 3 Sudoeste 13 Sudoeste 0 909.4 -- 96
2021-02-12 03:00:00 7.9 11 Sudoeste 22 Oeste 0.5 909.3 -- 93
2021-02-12 02:00:00 8.8 13 Oeste 30 Oeste 3.6 909 -- 94
2021-02-12 01:00:00 9.6 15 Sur 28 Sur 1.8 908.5 -- 98
2021-02-12 00:00:00 9.8 16 Sur 24 Sudoeste 1.7 909.1 -- 98
2021-02-11 23:00:00 9.7 14 Sur 33 Sur 0 909.7 -- 97
2021-02-11 22:00:00 9.8 14 Sur 30 Sur 0 909.9 -- 96
2021-02-11 21:00:00 10.1 23 Sur 30 Sur 0.2 910.2 -- 97
2021-02-11 20:00:00 10.1 16 Sur 24 Sur 0.3 910.5 -- 96
2021-02-11 19:00:00 10.4 10 Sur 26 Sur 0 910.6 -- 95
2021-02-11 18:00:00 10 7 Sudeste 15 Sudeste 0.1 910.8 -- 94
2021-02-11 17:00:00 10.2 11 Sudeste 17 Este 0 911 -- 87
2021-02-11 16:00:00 10.1 4 Este 9 Este 0 911.4 -- 83
2021-02-11 15:00:00 9.6 6 Este 11 Este 0 911.8 -- 83
2021-02-11 14:00:00 8.9 0 Calma 9 Este 0 912.3 -- 85
2021-02-11 13:00:00 7.5 5 Este 11 Sudeste 0 912.7 -- 88
2021-02-11 12:00:00 6.5 4 Nordeste 11 Nordeste 0 912.8 -- 90
2021-02-11 11:00:00 5.7 8 Nordeste 11 Nordeste 0 912.8 -- 92
2021-02-11 10:00:00 5.3 5 Nordeste 11 Norte 0 912.6 -- 92
2021-02-11 09:00:00 4.8 5 Norte 9 Nordeste 0 912.2 -- 94
2021-02-11 08:00:00 4.6 7 Nordeste 11 Nordeste 0 911.8 -- 94
2021-02-11 07:00:00 4.6 8 Norte 11 Norte 0 911.4 -- 93
2021-02-11 06:00:00 4.5 6 Nordeste 9 Nordeste 0 911.5 -- 92
2021-02-11 05:00:00 4.8 4 Norte 9 Este 0 911.2 -- 89
2021-02-11 04:00:00 4.7 3 Norte 11 Norte 0 911.6 -- 87
2021-02-11 03:00:00 4.8 0 Calma 5 Este 0 911.4 -- 85
2021-02-11 02:00:00 5 0 Calma 5 Nordeste 0 911.3 -- 83
2021-02-11 01:00:00 5.3 4 Nordeste 8 Nordeste 0 911.1 -- 84
2021-02-11 00:00:00 5.2 0 Calma 8 Este 0 910.5 -- 82
2021-02-10 23:00:00 5.3 5 Sudoeste -- -- 0 910.3 -- 79
2021-02-10 22:00:00 5.4 5 Sudoeste 11 Oeste 0 909.9 -- 77
2021-02-10 21:00:00 5.8 6 Oeste 13 Oeste 0 909.6 -- 74
2021-02-10 20:00:00 6.1 0 Calma 26 Noroeste 0 909.1 -- 70
2021-02-10 19:00:00 6.3 20 Oeste 33 Oeste 0 908.3 -- 75
2021-02-10 18:00:00 7.3 21 Oeste 32 Oeste 0 907.8 -- 68
2021-02-10 17:00:00 9.1 18 Oeste 33 Oeste 0 907.6 -- 65
2021-02-10 16:00:00 8.7 27 Oeste 39 Sudoeste 0 907.2 -- 68
2021-02-10 15:00:00 8.2 27 Oeste 48 Oeste 0 907 -- 70
2021-02-10 14:00:00 7.6 28 Oeste 42 Oeste 0 906.4 -- 73
2021-02-10 13:00:00 6.9 30 Oeste 50 Oeste 0 905.9 -- 75
2021-02-10 12:00:00 5.8 28 Oeste 48 Oeste 0 904.7 -- 80
2021-02-10 11:00:00 4.5 33 Oeste 48 Oeste 0 903.6 -- 85
2021-02-10 10:00:00 3 19 Oeste 35 Oeste 0 902.7 -- 88
2021-02-10 09:00:00 1.7 21 Oeste 39 Oeste 0 901.8 -- 94
2021-02-10 08:00:00 1.3 14 Sudoeste 24 Oeste 0 900.9 -- 94
2021-02-10 07:00:00 1.7 12 Oeste 22 Oeste 0 899.3 -- 96
2021-02-10 06:00:00 1.6 12 Oeste 24 Oeste 0 897.9 -- 97
2021-02-10 05:00:00 1.3 17 Oeste 32 Oeste 0 896.6 -- 97
2021-02-10 04:00:00 1.3 19 Oeste 42 Oeste 0.4 895.6 -- 98
2021-02-10 03:00:00 0.9 21 Oeste 37 Oeste 1.6 894.9 -- 100
2021-02-10 02:00:00 2.7 15 Sudoeste 24 Sudoeste 0.9 895.3 -- 98
2021-02-10 01:00:00 2.7 3 Sudeste 11 Sur 0 894.8 -- 98
2021-02-10 00:00:00 2.5 0 Calma 13 Sudeste 0 895.3 -- 98
2021-02-09 23:00:00 1.1 9 Sudoeste 13 Sudoeste 0 895.2 -- 99
2021-02-09 22:00:00 1.2 9 Sudoeste 22 Sur 0 894.9 -- 98
2021-02-09 21:00:00 2.1 17 Sudoeste 32 Sudoeste 0 894.7 -- 97
2021-02-09 20:00:00 3.1 30 Sudoeste 42 Sudoeste 0.1 894.5 -- 96
2021-02-09 19:00:00 3.6 24 Sudoeste 42 Sudoeste 0 893.6 -- 94
2021-02-09 18:00:00 4.7 30 Sudoeste 45 Sudoeste 0 894 -- 89
2021-02-09 17:00:00 5.2 25 Sur 39 Sudoeste 0 893.7 -- 88
2021-02-09 16:00:00 4.7 27 Sudoeste 42 Sudoeste 0.1 893.9 -- 91
2021-02-09 15:00:00 5.1 22 Sudoeste 39 Sudoeste 0 893.8 -- 87
2021-02-09 14:00:00 4.7 29 Sudoeste 42 Sudoeste 0 894.2 -- 90
2021-02-09 13:00:00 3.6 22 Sudoeste 55 Oeste 0.1 893.8 -- 91
2021-02-09 12:00:00 3.1 17 Oeste 41 Oeste 0.4 894.5 -- 95
2021-02-09 11:00:00 3.8 20 Oeste 52 Oeste 2.3 893 -- 95
2021-02-09 10:00:00 5.7 32 Sur 48 Sudoeste 0.7 892.5 -- 96
2021-02-09 09:00:00 5.7 33 Sudoeste 48 Sur 0 893.1 -- 94
2021-02-09 08:00:00 5.3 25 Sur 39 Sur 0 893.8 -- 96
2021-02-09 07:00:00 4.8 22 Sur 41 Sur 0 894.8 -- 98
2021-02-09 06:00:00 4.5 21 Sur 39 Sur 0 895.8 -- 99
2021-02-09 05:00:00 3.8 22 Sur 41 Sur 0 896.7 -- 98
2021-02-09 04:00:00 4 27 Sur 41 Sur 0 897.6 -- 96
2021-02-09 03:00:00 4.3 22 Sur 32 Sudoeste 0.2 898.6 -- 96
2021-02-09 02:00:00 4.6 23 Sudoeste 32 Sudoeste 0.3 899.2 -- 95
2021-02-09 01:00:00 4.7 11 Sur 15 Sur 0 899.5 -- 95
2021-02-09 00:00:00 4.9 11 Sudoeste 17 Sudoeste 0 899.7 -- 95
2021-02-08 23:00:00 4.9 13 Sur 17 Sur 0.1 899.6 -- 96
2021-02-08 22:00:00 4.8 9 Sudoeste 22 Oeste 0.2 898.9 -- 97
2021-02-08 21:00:00 5.1 15 Oeste 24 Oeste 0 899 -- 93
2021-02-08 20:00:00 4.9 16 Oeste 30 Oeste 0 898.5 -- 91
2021-02-08 19:00:00 4.8 19 Oeste 33 Oeste -- 898 -- 88
2021-02-08 18:00:00 5.7 21 Oeste 42 Oeste 0 897.4 -- 86
2021-02-08 17:00:00 6.3 31 Oeste 42 Oeste 0 896.9 -- 82
2021-02-08 16:00:00 6.7 30 Oeste 45 Oeste 0 896 -- 79
2021-02-08 15:00:00 6.7 24 Oeste 46 Oeste 1.6 895.7 -- 87
2021-02-08 14:00:00 7.5 16 Oeste 33 Sudoeste 0 895.8 -- 80
2021-02-08 13:00:00 6 15 Oeste 24 Sudoeste 0.1 896 -- 86
2021-02-08 12:00:00 6 13 Oeste 26 Sudoeste 0 896.4 -- 89
2021-02-08 11:00:00 4.6 20 Sudoeste 28 Sudoeste 0 896 -- 97
2021-02-08 10:00:00 3.4 10 Sudoeste 18 Sudoeste 0.2 895.9 -- 100
2021-02-08 09:00:00 1.5 14 Oeste 18 Oeste 0 895.5 -- 100
2021-02-08 08:00:00 1 3 Oeste 13 Sudoeste 0 894.9 -- 100
2021-02-08 07:00:00 2 11 Oeste 21 Oeste 0 894.8 -- 100
2021-02-08 06:00:00 1.9 5 Oeste 8 Oeste 0 894.5 -- 98
2021-02-08 05:00:00 2.9 7 Norte 11 Norte 0 894.5 -- 98
2021-02-08 04:00:00 4.1 0 Calma 9 Oeste 0 894.9 -- 99
2021-02-08 03:00:00 4.2 4 Norte 11 Sur 0 895.3 -- 99
2021-02-08 02:00:00 4 6 Sur 13 Sur 0.2 895.7 -- 99
2021-02-08 01:00:00 3.8 9 Sur 22 Sudoeste 1 896.5 -- 99
2021-02-08 00:00:00 3.8 11 Sur 18 Sudoeste 0 897.3 -- 98
2021-02-07 23:00:00 3.5 10 Sur 24 Sur 0.1 898.2 -- 98
2021-02-07 22:00:00 3.4 6 Sur 13 Sudeste 0 898.8 -- 98
2021-02-07 21:00:00 3.4 5 Este 9 Nordeste 0.1 899.5 -- 98
2021-02-07 20:00:00 3.3 0 Calma 5 Oeste 0.1 900 -- 97
2021-02-07 19:00:00 3.4 5 Sudoeste 17 Oeste 0 900.2 -- 97
2021-02-07 18:00:00 3.6 13 Oeste 24 Oeste 0 900.4 -- 94
2021-02-07 17:00:00 4 18 Oeste 26 Oeste 0 900.5 -- 88
2021-02-07 16:00:00 4.2 17 Sudoeste 26 Oeste 0 900.8 -- 85
2021-02-07 15:00:00 3.8 14 Sudoeste 30 Oeste 0 901.4 -- 81
2021-02-07 14:00:00 3.8 16 Sudoeste 30 Oeste 0 901.9 -- 78
2021-02-07 13:00:00 3.6 16 Sudoeste 28 Sudoeste 0 902.7 -- 77
2021-02-07 12:00:00 2.6 13 Oeste 22 Oeste 0 902.9 -- 83
2021-02-07 11:00:00 1.3 12 Oeste 17 Sudoeste 0 903 -- 89
2021-02-07 10:00:00 -0.2 3 Sudoeste 9 Sudoeste 0 903.2 -- 88
2021-02-07 09:00:00 -1.7 0 Calma 5 Sudoeste 0 903 -- 89
2021-02-07 08:00:00 -2.4 5 Oeste 9 Sudoeste 0 902.9 -- 91
2021-02-07 07:00:00 -2.7 5 Norte 11 Noroeste 0 902.9 -- 91
2021-02-07 06:00:00 -2.5 9 Noroeste 13 Noroeste 0 903 -- 89
2021-02-07 05:00:00 -2 5 Norte 11 Noroeste 0 903.2 -- 89
2021-02-07 04:00:00 -1.9 5 Norte 13 Noroeste 0 903.4 -- 89
2021-02-07 03:00:00 -1.6 11 Noroeste 15 Noroeste 0 903.5 -- 88
2021-02-07 02:00:00 -0.6 10 Noroeste 18 Noroeste 0 903.8 -- 86
2021-02-07 01:00:00 -0.7 12 Noroeste 18 Noroeste 0 903.8 -- 87
2021-02-07 00:00:00 -0.7 13 Noroeste 17 Noroeste 0 903.7 -- 90
2021-02-06 23:00:00 -0.1 8 Noroeste 18 Noroeste 0 903.6 -- 86
2021-02-06 22:00:00 0.6 11 Norte 18 Noroeste 0 903.2 -- 88
2021-02-06 21:00:00 1.1 10 Noroeste 24 Norte 0 902.8 -- 84
2021-02-06 20:00:00 2.6 12 Norte 22 Norte 0 902.4 -- 78
2021-02-06 19:00:00 4.1 13 Norte 30 Norte 0 901.5 -- 71
2021-02-06 18:00:00 6 18 Norte 32 Norte 0 900.6 -- 66
2021-02-06 17:00:00 6.7 17 Norte 30 Norte 0 900.3 -- 67
2021-02-06 16:00:00 6.7 20 Norte 37 Norte 0 899.8 -- 67
2021-02-06 15:00:00 6.9 23 Norte 35 Norte 0 899.6 -- 69
2021-02-06 14:00:00 7.4 23 Norte 37 Norte 0 899.4 -- 70
2021-02-06 13:00:00 6.4 18 Norte 33 Norte 0 899.7 -- 78
2021-02-06 12:00:00 5.4 16 Norte 30 Norte 0 899.4 -- 86
2021-02-06 11:00:00 4.3 17 Norte 32 Norte 0.4 899.1 -- 92
2021-02-06 10:00:00 3.9 18 Norte 35 Norte 0.1 898.7 -- 92
2021-02-06 09:00:00 4.3 21 Norte 35 Norte 0.3 898.3 -- 89
2021-02-06 08:00:00 4.3 14 Norte 32 Norte 0.2 897.7 -- 90
2021-02-06 07:00:00 4.3 19 Norte 33 Norte 0.4 897.3 -- 90
2021-02-06 06:00:00 4.3 18 Norte 39 Norte 1.1 897.3 -- 92
2021-02-06 05:00:00 4.3 24 Norte 39 Norte 0.5 896.7 -- 93
2021-02-06 04:00:00 4.1 23 Norte 46 Norte 0.5 896.9 -- 95
2021-02-06 03:00:00 4 29 Norte 48 Norte 3.3 897.4 -- 98
2021-02-06 02:00:00 4.4 23 Norte 41 Norte 1.4 898.1 -- 95
2021-02-06 01:00:00 4.9 22 Norte 39 Norte 1.5 898.3 -- 96
2021-02-06 00:00:00 5.5 15 Norte 37 Norte 2.2 898.5 -- 95
2021-02-05 23:00:00 6.5 21 Norte 30 Norte 1.2 898.1 -- 92
2021-02-05 22:00:00 6.8 14 Norte 28 Norte 0 898.6 -- 84
2021-02-05 21:00:00 6.8 15 Norte 28 Norte 0 898.4 -- 84
2021-02-05 20:00:00 7 14 Norte 22 Norte 0 898.5 -- 84
2021-02-05 19:00:00 7.4 11 Norte 21 Norte 0 898.7 -- 87
2021-02-05 18:00:00 7.9 13 Norte 21 Norte 0 898.5 -- 85
2021-02-05 17:00:00 8.4 7 Norte 17 Norte 0 899.3 -- 90
2021-02-05 16:00:00 8.3 10 Norte 22 Norte 0 899.7 -- 91
2021-02-05 15:00:00 8.3 5 Norte 18 Nordeste 0 900.3 -- 94
2021-02-05 14:00:00 7.4 13 Nordeste 21 Nordeste 0 901.2 -- 97
2021-02-05 13:00:00 6.1 12 Norte 17 Norte 0.2 902.2 -- 98
2021-02-05 12:00:00 5.1 13 Norte 18 Nordeste 1.7 902.7 -- 98
2021-02-05 11:00:00 5.1 8 Norte 24 Norte 0.5 903.2 -- 96
2021-02-05 10:00:00 5.1 12 Norte 21 Norte 0.5 903.4 -- 97
2021-02-05 09:00:00 4.8 10 Norte 17 Norte 3.1 903.3 -- 97
2021-02-05 08:00:00 5 9 Norte 18 Norte 0.2 903.3 -- 95
2021-02-05 07:00:00 4.8 10 Norte 18 Norte 0 903.2 -- 97
2021-02-05 06:00:00 4.5 9 Norte 13 Norte 0 903.8 -- 99
2021-02-05 05:00:00 4.4 5 Norte 9 Norte 0 904.2 -- 99
2021-02-05 04:00:00 4.6 7 Nordeste 9 Este 0.2 904.5 -- 99
2021-02-05 03:00:00 4.5 8 Norte 11 Norte 0 904.5 -- 99
2021-02-05 02:00:00 4.7 3 Norte 9 Norte 0.1 905.3 -- 99
2021-02-05 01:00:00 4.8 6 Norte 9 Norte 0 905.3 -- 99
2021-02-05 00:00:00 4.9 6 Nordeste 9 Nordeste 0.3 905.7 -- 98
2021-02-04 23:00:00 4.7 3 Norte 11 Norte 0 905.6 -- 97
2021-02-04 22:00:00 4.8 3 Noroeste 8 Norte 0.1 905.4 -- 97
2021-02-04 21:00:00 4.9 5 Noroeste 8 Noroeste 0.2 905.3 -- 96
2021-02-04 20:00:00 5.2 2 Norte 8 Norte 0.2 904.9 -- 94
2021-02-04 19:00:00 5.2 0 Calma 8 Oeste 0.1 904.7 -- 93
2021-02-04 18:00:00 5.5 5 Sudeste 9 Sur 0.7 904.5 -- 92
2021-02-04 17:00:00 5.8 8 Sudeste 13 Sudeste 0.1 904.2 -- 91
2021-02-04 16:00:00 6 8 Este 11 Este 0.5 904.3 -- 91
2021-02-04 15:00:00 6.2 7 Sudeste 9 Sudeste 0.7 904.8 -- 85
2021-02-04 14:00:00 6.7 7 Sudeste 9 Sudeste 0 905.2 -- 85
2021-02-04 13:00:00 6.7 6 Sudeste 11 Sudeste 0 905.8 -- 94
2021-02-04 12:00:00 6.5 5 Este 11 Este 0 906.4 -- 94
2021-02-04 11:00:00 6.1 7 Este 13 Este 0 906.1 -- 98
2021-02-04 10:00:00 5.3 9 Este 11 Este 0 906 -- 99
2021-02-04 09:00:00 4.7 6 Sudeste 11 Este 0 905.9 -- 98
2021-02-04 08:00:00 4.7 7 Este 9 Sudeste 0 905.7 -- 97
2021-02-04 07:00:00 4.5 0 Calma 8 Este 0 905.4 -- 97
2021-02-04 06:00:00 4.8 4 Sudeste 13 Sudeste 0 905.5 -- 97
2021-02-04 05:00:00 5.1 9 Sudeste 15 Sudeste 0 905.4 -- 96
2021-02-04 04:00:00 5.3 8 Este 11 Sudeste 0 905.7 -- 93
2021-02-04 03:00:00 5 4 Sudeste 9 Este 0 905.8 -- 92
2021-02-04 02:00:00 4.8 2 Sudeste 11 Sudoeste 0 905.8 -- 92
2021-02-04 01:00:00 5.1 8 Sudoeste 15 Sudoeste 0 905.8 -- 93
2021-02-04 00:00:00 5.8 10 Sudoeste 22 Sur 0 905.7 -- 91
2021-02-03 23:00:00 6.4 11 Sur 17 Sur 0 905.6 -- 87
2021-02-03 22:00:00 6.3 7 Sudoeste 22 Sudoeste 0 905.4 -- 83
2021-02-03 21:00:00 6.2 9 Sudoeste 15 Oeste 0 905.4 -- 84
2021-02-03 20:00:00 6.3 11 Sudoeste 21 Oeste 0 905.3 -- 85
2021-02-03 19:00:00 7.5 4 Oeste 17 Oeste 0 905.4 -- 81
2021-02-03 18:00:00 9.3 13 Oeste 42 Sudoeste 0 905.1 -- 72
2021-02-03 17:00:00 11.1 28 Sudoeste 42 Sudoeste 0 905.1 -- 59
2021-02-03 16:00:00 11.3 23 Sudoeste 35 Sudoeste 0 905.2 -- 56
2021-02-03 15:00:00 11.1 14 Sudoeste 22 Sudoeste 0 905.6 -- 62
2021-02-03 14:00:00 11.2 20 Oeste 42 Sudoeste 0 905.9 -- 60
2021-02-03 13:00:00 11.3 25 Sudoeste 42 Sudoeste 0 906.4 -- 60
2021-02-03 12:00:00 10.5 25 Sudoeste 39 Sudoeste 0 906.7 -- 65
2021-02-03 11:00:00 9.3 21 Sudoeste 32 Sudoeste 0 906.6 -- 68
2021-02-03 10:00:00 6.7 9 Sudoeste 13 Sudoeste 0 906.2 -- 90
2021-02-03 09:00:00 5.7 10 Sudoeste 22 Oeste 0 905.6 -- 91
2021-02-03 08:00:00 6.7 15 Oeste 32 Oeste 0 904.8 -- 91
2021-02-03 07:00:00 7.3 24 Oeste 37 Oeste 0.2 904.1 -- 90
2021-02-03 06:00:00 8.3 21 Sudoeste 35 Sudoeste 0.2 903.6 -- 97
2021-02-03 05:00:00 8.4 23 Sudoeste 42 Sur 0 903.2 -- 96
2021-02-03 04:00:00 8.6 29 Sur 45 Sur 0 903.1 -- 96
2021-02-03 03:00:00 8.6 31 Sur 45 Sur 0 903.6 -- 96
2021-02-03 02:00:00 8.3 25 Sur 41 Sur 0.1 904.1 -- 98
2021-02-03 01:00:00 8.3 22 Sur 35 Sur 0 904.6 -- 98
2021-02-03 00:00:00 8.3 25 Sur 39 Sur 0 904.8 -- 98
2021-02-02 23:00:00 8.3 23 Sur 35 Sur 0.2 905.3 -- 98
2021-02-02 22:00:00 8.2 19 Sur 28 Sur 0.3 905.8 -- 98
2021-02-02 21:00:00 8.3 24 Sur 37 Sur 0 906.5 -- 96
2021-02-02 20:00:00 8.3 23 Sur 42 Sudoeste 0 906.6 -- 97
2021-02-02 19:00:00 8.5 23 Sur 48 Sudoeste 1.6 907.2 -- 97
2021-02-02 18:00:00 8.8 30 Sur 42 Sur 0.6 907.1 -- 95
2021-02-02 17:00:00 9.3 28 Sur 46 Sudoeste 0.1 907.3 -- 91
2021-02-02 16:00:00 10.3 28 Sur 42 Sur 0 907.7 -- 86
2021-02-02 15:00:00 9.7 25 Sur 35 Sudoeste 0.2 908.2 -- 92
2021-02-02 14:00:00 9.2 24 Sudoeste 39 Sudoeste 0.6 909.5 -- 94
2021-02-02 13:00:00 9.4 24 Sudoeste 37 Sudoeste 0 910.3 -- 89
2021-02-02 12:00:00 9.3 21 Sur 33 Sudoeste 0 910.4 -- 89
2021-02-02 11:00:00 8.4 17 Sur 24 Sudoeste 0 910.1 -- 94
2021-02-02 10:00:00 7.8 11 Sur 22 Sur 0 910.5 -- 97
2021-02-02 09:00:00 7 10 Sur 17 Sur 0 910.3 -- 97
2021-02-02 08:00:00 5.6 0 Calma 13 Sudeste 0 910.1 -- 97
2021-02-02 07:00:00 5.8 0 Calma 8 Oeste 0 910.2 -- 95
2021-02-02 06:00:00 7.5 0 Calma 9 Oeste 0 910.3 -- 97
2021-02-02 05:00:00 8.3 9 Sudoeste 18 Sudoeste 0 910.4 -- 97
2021-02-02 04:00:00 8.4 10 Sudoeste 15 Sudoeste 0 910.6 -- 96
2021-02-02 03:00:00 8.7 12 Sudoeste 28 Sudoeste 0 910.7 -- 96
2021-02-02 02:00:00 8.6 15 Sudoeste 24 Sudoeste 0 911 -- 95
2021-02-02 01:00:00 8.8 15 Sudoeste 32 Sudoeste 0 911 -- 94
2021-02-02 00:00:00 8.8 24 Sudoeste 39 Sudoeste 0 910.6 -- 94
2021-02-01 23:00:00 8.7 23 Sudoeste 32 Sudoeste 0 910.6 -- 93
2021-02-01 22:00:00 8.9 13 Sudoeste 26 Sudoeste 0 910.5 -- 90
2021-02-01 21:00:00 9.5 19 Sudoeste 26 Sudoeste 0 910.7 -- 86
2021-02-01 20:00:00 10.1 14 Oeste 24 Oeste 0 910.8 -- 79
2021-02-01 19:00:00 10.6 20 Sudoeste 32 Sudoeste 0 910.7 -- 74
2021-02-01 18:00:00 10.8 22 Sudoeste 46 Sudoeste 0 910 -- 72
2021-02-01 17:00:00 11.4 33 Sudoeste 46 Sudoeste 0 909.7 -- 72
2021-02-01 16:00:00 12.5 28 Oeste 48 Oeste 0 909.6 -- 66
2021-02-01 15:00:00 12.1 32 Oeste 59 Oeste 0 909.6 -- 69
2021-02-01 14:00:00 12.8 37 Oeste 59 Sudoeste 0 909.5 -- 66
2021-02-01 13:00:00 11.5 32 Oeste 48 Oeste 0 909.4 -- 71
2021-02-01 12:00:00 11.1 23 Oeste 48 Oeste 0 909.5 -- 76
2021-02-01 11:00:00 10 30 Oeste 54 Oeste 0 909 -- 80
2021-02-01 10:00:00 9 30 Oeste 52 Oeste 0 908.3 -- 84
2021-02-01 09:00:00 7.8 29 Oeste 46 Oeste 0 907.6 -- 85
2021-02-01 08:00:00 8.1 32 Oeste 59 Noroeste 0 906.8 -- 79
2021-02-01 07:00:00 8.1 32 Oeste 63 Oeste 0 906.1 -- 78
2021-02-01 06:00:00 7.9 36 Oeste 59 Oeste 0 906.2 -- 79
2021-02-01 05:00:00 8 36 Oeste 61 Noroeste 0 905.9 -- 80
2021-02-01 04:00:00 7.9 38 Oeste 72 Oeste 0 905.5 -- 80
2021-02-01 03:00:00 7.9 46 Oeste 67 Oeste 0 905.4 -- 81
2021-02-01 02:00:00 7.9 39 Oeste 61 Oeste 0 905.4 -- 82
2021-02-01 01:00:00 7.9 39 Oeste 65 Oeste 0 905.7 -- 81
2021-02-01 00:00:00 8.1 41 Oeste 65 Oeste 0 905.8 -- 78
2021-01-31 23:00:00 8.6 40 Oeste 63 Oeste 0 905.6 -- 78
2021-01-31 22:00:00 8.9 33 Oeste 61 Oeste 0.2 905.4 -- 83
2021-01-31 21:00:00 9.4 32 Oeste 54 Oeste 0 904.9 -- 82
2021-01-31 20:00:00 9.9 37 Oeste 59 Oeste 0 904.3 -- 78
2021-01-31 19:00:00 10.6 43 Oeste 72 Oeste 0 903.4 -- 73
2021-01-31 18:00:00 12.6 31 Oeste 65 Oeste 0 903.6 -- 64
2021-01-31 17:00:00 14 38 Oeste 68 Oeste 0 904 -- 63
2021-01-31 16:00:00 12.9 37 Oeste 63 Oeste 0 904.8 -- 69
2021-01-31 15:00:00 13.1 41 Oeste 67 Oeste 0 905 -- 65
2021-01-31 14:00:00 12.3 31 Oeste 55 Oeste 0 905.7 -- 74
2021-01-31 13:00:00 12.5 34 Oeste 52 Oeste 0 906.2 -- 75
2021-01-31 12:00:00 10.8 33 Oeste 52 Oeste 0 906.8 -- 82
2021-01-31 11:00:00 9.3 24 Oeste 39 Oeste 0 906.6 -- 85
2021-01-31 10:00:00 6.5 20 Oeste 32 Oeste 0 906.7 -- 92
2021-01-31 09:00:00 5.8 13 Sudoeste 39 Oeste 0 906.9 -- 92
2021-01-31 08:00:00 5.4 25 Oeste 48 Oeste 0 906.8 -- 90
2021-01-31 07:00:00 4.8 23 Sudoeste 35 Noroeste 0 906.9 -- 87
2021-01-31 06:00:00 5.7 21 Oeste 35 Oeste 0 906.1 -- 80
2021-01-31 05:00:00 5.3 33 Oeste 59 Oeste 0 905.8 -- 81
2021-01-31 04:00:00 5.2 29 Oeste 52 Oeste 0 905.3 -- 81
2021-01-31 03:00:00 4.4 21 Oeste 30 Oeste 0 906 -- 83
2021-01-31 02:00:00 5 18 Oeste 50 Oeste 0 906.3 -- 79
2021-01-31 01:00:00 4.8 23 Oeste 37 Oeste 0 906.3 -- 86
2021-01-31 00:00:00 4.6 8 Noroeste 52 Oeste 0 905.7 -- 83